Time;durP1;ratioP1;P1;durP2;ratioP2;P2;SDS_P1;SDS_P2;PMS_P1;PMS_P2;Temp;Humidity;BMP_temperature;BMP_pressure;BME280_temperature;BME280_humidity;BME280_pressure;Samples;Min_cycle;Max_cycle;Signal;HPM_P1;HPM_P2
2021/12/24 00:00:35;;;;;;;0.00;0.00;;;;;;;;;;1740193;28;20480;-72
2021/12/24 00:01:26;;;;;;;0.00;0.00;;;;;;;;;;1740429;28;20206;-72
2021/12/24 00:02:19;;;;;;;0.00;0.00;;;;;;;;;;1740467;28;20268;-72
2021/12/24 00:03:10;;;;;;;0.00;0.00;;;;;;;;;;1739818;28;20206;-72
2021/12/24 00:04:02;;;;;;;0.00;0.00;;;;;;;;;;1737065;28;20195;-72
2021/12/24 00:04:53;;;;;;;0.00;0.00;;;;;;;;;;1737992;28;20202;-72
2021/12/24 00:05:46;;;;;;;0.00;0.00;;;;;;;;;;1736569;28;20262;-72
2021/12/24 00:06:37;;;;;;;0.00;0.00;;;;;;;;;;1736751;28;20617;-72
2021/12/24 00:07:31;;;;;;;0.00;0.00;;;;;;;;;;1740841;28;20688;-72
2021/12/24 00:08:22;;;;;;;0.10;0.10;;;;;;;;;;1739040;28;20207;-72
2021/12/24 00:09:21;;;;;;;0.00;0.00;;;;;;;;;;1737521;28;20198;-72
2021/12/24 00:10:12;;;;;;;0.00;0.00;;;;;;;;;;1738364;28;20866;-72
2021/12/24 00:11:06;;;;;;;0.00;0.00;;;;;;;;;;1739275;28;20435;-72
2021/12/24 00:12:00;;;;;;;0.00;0.00;;;;;;;;;;1739350;28;20291;-72
2021/12/24 00:12:59;;;;;;;0.00;0.00;;;;;;;;;;1739991;28;20264;-72
2021/12/24 00:13:51;;;;;;;0.00;0.00;;;;;;;;;;1740367;28;20233;-72
2021/12/24 00:14:49;;;;;;;0.03;0.03;;;;;;;;;;1739749;28;20209;-72
2021/12/24 00:15:55;;;;;;;0.00;0.00;;;;;;;;;;1739429;28;20341;-73
2021/12/24 00:16:52;;;;;;;0.00;0.00;;;;;;;;;;1740689;28;20635;-72
2021/12/24 00:17:43;;;;;;;0.08;0.08;;;;;;;;;;1739934;28;20235;-72
2021/12/24 00:18:42;;;;;;;0.00;0.00;;;;;;;;;;1740623;28;20203;-72
2021/12/24 00:19:41;;;;;;;0.00;0.00;;;;;;;;;;1734669;28;20841;-72
2021/12/24 00:21:31;;;;;;;0.00;0.00;;;;;;;;;;1740105;28;20210;-72
2021/12/24 00:35:05;;;;;;;0.00;0.00;;;;;;;;;;1739686;28;20186;-72
2021/12/24 00:35:31;;;;;;;0.00;0.00;;;;;;;;;;1712671;28;20219;-72
2021/12/24 00:36:22;;;;;;;0.00;0.00;;;;;;;;;;1727851;28;20510;-72
2021/12/24 00:37:16;;;;;;;0.00;0.00;;;;;;;;;;1725165;28;20558;-72
2021/12/24 00:38:10;;;;;;;0.10;0.10;;;;;;;;;;1725896;28;20208;-72
2021/12/24 00:39:01;;;;;;;0.00;0.00;;;;;;;;;;1717873;28;20983;-72
2021/12/24 00:40:03;;;;;;;0.00;0.00;;;;;;;;;;1724185;28;20204;-72
2021/12/24 00:40:55;;;;;;;0.00;0.00;;;;;;;;;;1723366;28;20295;-72
2021/12/24 00:41:46;;;;;;;0.00;0.00;;;;;;;;;;1725725;28;20219;-72
2021/12/24 00:42:38;;;;;;;0.00;0.00;;;;;;;;;;1721598;28;20324;-72
2021/12/24 00:43:30;;;;;;;0.00;0.00;;;;;;;;;;1718886;28;20686;-72
2021/12/24 00:44:21;;;;;;;0.00;0.00;;;;;;;;;;1722533;28;20200;-72
2021/12/24 00:45:14;;;;;;;0.00;0.00;;;;;;;;;;1719141;28;20449;-72
2021/12/24 00:46:06;;;;;;;0.00;0.00;;;;;;;;;;1725363;28;20236;-72
2021/12/24 00:46:58;;;;;;;0.00;0.00;;;;;;;;;;1724779;28;20211;-72
2021/12/24 00:47:49;;;;;;;0.00;0.00;;;;;;;;;;1719772;28;20718;-72
2021/12/24 00:48:42;;;;;;;0.00;0.00;;;;;;;;;;1717566;28;20284;-72
2021/12/24 00:49:33;;;;;;;0.00;0.00;;;;;;;;;;1722360;28;20204;-72
2021/12/24 00:50:27;;;;;;;0.00;0.00;;;;;;;;;;1725256;28;20480;-72
2021/12/24 00:51:22;;;;;;;0.00;0.00;;;;;;;;;;1721262;28;20232;-72
2021/12/24 00:52:43;;;;;;;0.00;0.00;;;;;;;;;;1726735;28;20677;-72
2021/12/24 00:55:54;;;;;;;0.00;0.00;;;;;;;;;;1721116;28;20709;-72
2021/12/24 00:56:46;;;;;;;0.00;0.00;;;;;;;;;;1725308;28;20214;-72
2021/12/24 00:57:39;;;;;;;0.00;0.00;;;;;;;;;;1725377;28;20224;-72
2021/12/24 00:58:31;;;;;;;0.00;0.00;;;;;;;;;;1722435;28;20247;-72
2021/12/24 00:59:22;;;;;;;0.00;0.00;;;;;;;;;;1720870;28;20201;-72
2021/12/24 01:00:16;;;;;;;0.00;0.00;;;;;;;;;;1725888;28;20212;-72
2021/12/24 01:01:08;;;;;;;0.00;0.00;;;;;;;;;;1725238;28;20231;-72
2021/12/24 01:02:03;;;;;;;0.00;0.00;;;;;;;;;;1725327;28;20523;-72
2021/12/24 01:02:55;;;;;;;0.05;0.05;;;;;;;;;;1725917;28;20217;-72
2021/12/24 01:03:47;;;;;;;0.00;0.00;;;;;;;;;;1721088;28;20248;-72
2021/12/24 01:04:39;;;;;;;0.00;0.00;;;;;;;;;;1723321;28;20507;-72
2021/12/24 01:05:31;;;;;;;0.00;0.00;;;;;;;;;;1724405;28;20200;-72
2021/12/24 01:06:22;;;;;;;0.00;0.00;;;;;;;;;;1721946;28;20219;-72
2021/12/24 01:07:15;;;;;;;0.00;0.00;;;;;;;;;;1726628;28;20554;-72
2021/12/24 01:08:07;;;;;;;0.00;0.00;;;;;;;;;;1725440;28;20487;-72
2021/12/24 01:09:00;;;;;;;0.00;0.00;;;;;;;;;;1715090;28;20229;-72
2021/12/24 01:09:51;;;;;;;0.00;0.00;;;;;;;;;;1721520;28;20578;-72
2021/12/24 01:10:44;;;;;;;0.00;0.00;;;;;;;;;;1723003;28;20555;-72
2021/12/24 01:11:36;;;;;;;0.00;0.00;;;;;;;;;;1722849;28;20232;-72
2021/12/24 01:12:28;;;;;;;0.00;0.00;;;;;;;;;;1722597;28;20205;-72
2021/12/24 01:13:19;;;;;;;0.00;0.00;;;;;;;;;;1720412;28;20197;-72
2021/12/24 01:14:11;;;;;;;0.00;0.00;;;;;;;;;;1722117;28;20197;-72
2021/12/24 01:15:03;;;;;;;0.00;0.00;;;;;;;;;;1723477;28;20567;-72
2021/12/24 01:15:59;;;;;;;0.00;0.00;;;;;;;;;;1718903;28;20232;-72
2021/12/24 01:16:59;;;;;;;0.00;0.00;;;;;;;;;;1724875;28;20201;-72
2021/12/24 01:17:59;;;;;;;0.00;0.00;;;;;;;;;;1719298;28;20639;-72
2021/12/24 01:18:58;;;;;;;0.00;0.00;;;;;;;;;;1716981;28;20564;-72
2021/12/24 01:19:53;;;;;;;0.00;0.00;;;;;;;;;;1724374;28;20215;-72
2021/12/24 01:20:48;;;;;;;0.00;0.00;;;;;;;;;;1721814;28;20233;-72
2021/12/24 01:22:02;;;;;;;0.00;0.00;;;;;;;;;;1723506;28;20207;-72
2021/12/24 01:24:05;;;;;;;0.00;0.00;;;;;;;;;;1711047;28;20202;-72
2021/12/24 01:25:03;;;;;;;0.00;0.00;;;;;;;;;;1718655;28;20640;-72
2021/12/24 01:25:59;;;;;;;0.00;0.00;;;;;;;;;;1717856;28;20225;-72
2021/12/24 01:26:59;;;;;;;0.00;0.00;;;;;;;;;;1724408;28;20208;-72
2021/12/24 01:28:04;;;;;;;0.00;0.00;;;;;;;;;;1719483;28;20296;-72
2021/12/24 01:29:18;;;;;;;0.00;0.00;;;;;;;;;;1719348;28;20220;-72
2021/12/24 01:37:51;;;;;;;0.00;0.00;;;;;;;;;;1726037;28;20709;-72
2021/12/24 01:38:33;;;;;;;0.00;0.00;;;;;;;;;;1737910;28;20214;-72
2021/12/24 01:39:39;;;;;;;0.00;0.00;;;;;;;;;;1739449;28;20268;-72
2021/12/24 01:40:40;;;;;;;0.00;0.00;;;;;;;;;;1739852;28;20265;-72
2021/12/24 01:42:46;;;;;;;0.00;0.00;;;;;;;;;;1737916;28;20274;-72
2021/12/24 01:43:37;;;;;;;0.00;0.00;;;;;;;;;;1737308;28;20207;-72
2021/12/24 01:44:28;;;;;;;0.00;0.00;;;;;;;;;;1739090;28;20203;-72
2021/12/24 01:45:22;;;;;;;0.00;0.00;;;;;;;;;;1738364;28;20206;-72
2021/12/24 01:46:13;;;;;;;0.00;0.00;;;;;;;;;;1739000;28;20253;-72
2021/12/24 01:47:07;;;;;;;0.00;0.00;;;;;;;;;;1741295;28;20207;-72
2021/12/24 01:48:01;;;;;;;0.00;0.00;;;;;;;;;;1739070;28;20571;-72
2021/12/24 01:48:53;;;;;;;0.00;0.00;;;;;;;;;;1739792;28;20289;-72
2021/12/24 01:49:44;;;;;;;0.00;0.00;;;;;;;;;;1738777;28;20211;-72
2021/12/24 01:50:38;;;;;;;0.00;0.00;;;;;;;;;;1739591;28;20537;-72
2021/12/24 01:51:29;;;;;;;0.00;0.00;;;;;;;;;;1739229;28;20222;-72
2021/12/24 01:52:22;;;;;;;0.00;0.00;;;;;;;;;;1740306;28;20195;-72
2021/12/24 01:53:14;;;;;;;0.00;0.00;;;;;;;;;;1737723;28;20233;-72
2021/12/24 01:54:06;;;;;;;0.00;0.00;;;;;;;;;;1739272;28;20268;-72
2021/12/24 01:54:59;;;;;;;0.00;0.00;;;;;;;;;;1737838;28;20203;-72
2021/12/24 01:55:52;;;;;;;0.00;0.00;;;;;;;;;;1735500;28;20235;-72
2021/12/24 01:56:43;;;;;;;0.00;0.00;;;;;;;;;;1739828;28;20600;-72
2021/12/24 01:57:36;;;;;;;0.00;0.00;;;;;;;;;;1736779;28;20288;-73
2021/12/24 01:58:28;;;;;;;0.00;0.00;;;;;;;;;;1739159;28;20194;-72
2021/12/24 01:59:20;;;;;;;0.00;0.00;;;;;;;;;;1739384;28;20203;-72
2021/12/24 02:00:12;;;;;;;0.00;0.00;;;;;;;;;;1740219;28;20214;-72
2021/12/24 02:01:04;;;;;;;0.00;0.00;;;;;;;;;;1738691;28;20234;-72
2021/12/24 02:01:55;;;;;;;0.00;0.00;;;;;;;;;;1736370;28;20328;-72
2021/12/24 02:02:48;;;;;;;0.00;0.00;;;;;;;;;;1733814;28;20218;-72
2021/12/24 02:03:39;;;;;;;0.00;0.00;;;;;;;;;;1739791;28;20203;-72
2021/12/24 02:04:31;;;;;;;0.00;0.00;;;;;;;;;;1739111;28;20691;-72
2021/12/24 02:05:23;;;;;;;0.00;0.00;;;;;;;;;;1739975;28;20199;-72
2021/12/24 02:06:15;;;;;;;0.00;0.00;;;;;;;;;;1739050;28;20557;-72
2021/12/24 02:07:07;;;;;;;0.00;0.00;;;;;;;;;;1739924;28;20207;-72
2021/12/24 02:07:59;;;;;;;0.00;0.00;;;;;;;;;;1738723;28;20194;-72
2021/12/24 02:08:50;;;;;;;0.00;0.00;;;;;;;;;;1740540;28;20317;-72
2021/12/24 02:09:42;;;;;;;0.00;0.00;;;;;;;;;;1739222;28;20597;-72
2021/12/24 02:10:35;;;;;;;0.00;0.00;;;;;;;;;;1739333;28;20211;-72
2021/12/24 02:11:27;;;;;;;0.00;0.00;;;;;;;;;;1739017;28;20218;-72
2021/12/24 02:12:18;;;;;;;0.00;0.00;;;;;;;;;;1739379;28;20225;-72
2021/12/24 02:13:11;;;;;;;0.00;0.00;;;;;;;;;;1739453;28;20605;-72
2021/12/24 02:14:03;;;;;;;0.00;0.00;;;;;;;;;;1739697;28;20207;-72
2021/12/24 02:14:58;;;;;;;0.00;0.00;;;;;;;;;;1739870;28;20237;-76
2021/12/24 02:16:04;;;;;;;0.00;0.00;;;;;;;;;;1739035;28;20235;-72
2021/12/24 02:17:24;;;;;;;0.00;0.00;;;;;;;;;;1738597;28;20206;-72
2021/12/24 02:28:24;;;;;;;0.00;0.00;;;;;;;;;;1725804;28;20587;-72
2021/12/24 02:29:15;;;;;;;0.00;0.00;;;;;;;;;;1736496;28;20214;-72
2021/12/24 02:30:09;;;;;;;0.03;0.03;;;;;;;;;;1739553;28;20238;-72
2021/12/24 02:31:00;;;;;;;0.00;0.00;;;;;;;;;;1737832;28;20242;-72
2021/12/24 02:31:52;;;;;;;0.00;0.00;;;;;;;;;;1736911;28;20199;-72
2021/12/24 02:32:44;;;;;;;0.00;0.00;;;;;;;;;;1738182;28;20211;-72
2021/12/24 02:33:36;;;;;;;0.00;0.00;;;;;;;;;;1738385;28;20648;-72
2021/12/24 02:34:27;;;;;;;0.00;0.00;;;;;;;;;;1739178;28;20203;-72
2021/12/24 02:35:19;;;;;;;0.00;0.00;;;;;;;;;;1738177;28;20239;-72
2021/12/24 02:36:13;;;;;;;0.00;0.00;;;;;;;;;;1738611;28;20227;-72
2021/12/24 02:37:04;;;;;;;0.00;0.00;;;;;;;;;;1739189;28;20558;-72
2021/12/24 02:37:57;;;;;;;0.00;0.00;;;;;;;;;;1738970;28;20229;-72
2021/12/24 02:38:48;;;;;;;0.00;0.00;;;;;;;;;;1737477;28;20206;-72
2021/12/24 02:39:41;;;;;;;0.00;0.00;;;;;;;;;;1739127;28;20261;-72
2021/12/24 02:40:32;;;;;;;0.00;0.00;;;;;;;;;;1739340;28;20206;-72
2021/12/24 02:41:24;;;;;;;0.00;0.00;;;;;;;;;;1738830;28;20210;-72
2021/12/24 02:42:17;;;;;;;0.00;0.00;;;;;;;;;;1738871;28;20252;-72
2021/12/24 02:43:13;;;;;;;0.00;0.00;;;;;;;;;;1737662;28;20203;-72
2021/12/24 02:44:04;;;;;;;0.00;0.00;;;;;;;;;;1739949;28;20352;-72
2021/12/24 02:44:57;;;;;;;0.00;0.00;;;;;;;;;;1737332;28;20237;-72
2021/12/24 02:45:50;;;;;;;0.00;0.00;;;;;;;;;;1738506;28;20231;-72
2021/12/24 02:47:05;;;;;;;0.00;0.00;;;;;;;;;;1737692;28;20374;-73
2021/12/24 02:48:13;;;;;;;0.00;0.00;;;;;;;;;;1738511;28;20203;-72
2021/12/24 02:49:11;;;;;;;0.00;0.00;;;;;;;;;;1738423;28;20576;-73
2021/12/24 02:53:57;;;;;;;0.00;0.00;;;;;;;;;;1739568;28;20581;-72
2021/12/24 02:54:49;;;;;;;0.00;0.00;;;;;;;;;;1733886;28;20632;-72
2021/12/24 02:55:40;;;;;;;0.00;0.00;;;;;;;;;;1736639;28;20648;-72
2021/12/24 02:56:33;;;;;;;0.00;0.00;;;;;;;;;;1739598;28;20239;-72
2021/12/24 02:57:27;;;;;;;0.00;0.00;;;;;;;;;;1738759;28;20210;-72
2021/12/24 02:58:19;;;;;;;0.00;0.00;;;;;;;;;;1738880;28;20273;-72
2021/12/24 02:59:13;;;;;;;0.00;0.00;;;;;;;;;;1739358;28;20219;-72
2021/12/24 03:00:14;;;;;;;0.03;0.03;;;;;;;;;;1737198;28;20210;-73
2021/12/24 03:01:06;;;;;;;0.00;0.00;;;;;;;;;;1736922;28;20550;-72
2021/12/24 03:01:59;;;;;;;0.00;0.00;;;;;;;;;;1737111;28;20202;-72
2021/12/24 03:02:50;;;;;;;0.00;0.00;;;;;;;;;;1738815;28;20280;-72
2021/12/24 03:03:44;;;;;;;0.00;0.00;;;;;;;;;;1739573;28;20204;-72
2021/12/24 03:04:35;;;;;;;0.00;0.00;;;;;;;;;;1733445;28;20271;-72
2021/12/24 03:05:28;;;;;;;0.00;0.00;;;;;;;;;;1738859;28;20203;-72
2021/12/24 03:06:21;;;;;;;0.00;0.00;;;;;;;;;;1738386;28;20640;-71
2021/12/24 03:07:13;;;;;;;0.00;0.00;;;;;;;;;;1737688;28;20548;-72
2021/12/24 03:08:04;;;;;;;0.00;0.00;;;;;;;;;;1738703;28;20207;-72
2021/12/24 03:08:57;;;;;;;0.00;0.00;;;;;;;;;;1737358;28;20577;-72
2021/12/24 03:09:48;;;;;;;0.00;0.00;;;;;;;;;;1739445;28;20680;-72
2021/12/24 03:10:42;;;;;;;0.00;0.00;;;;;;;;;;1738180;28;20249;-72
2021/12/24 03:11:34;;;;;;;0.00;0.00;;;;;;;;;;1739111;28;20711;-72
2021/12/24 03:12:26;;;;;;;0.00;0.00;;;;;;;;;;1738392;28;20518;-72
2021/12/24 03:13:17;;;;;;;0.00;0.00;;;;;;;;;;1739277;28;20209;-72
2021/12/24 03:14:10;;;;;;;0.00;0.00;;;;;;;;;;1739099;28;20204;-72
2021/12/24 03:15:01;;;;;;;0.00;0.00;;;;;;;;;;1739550;28;20273;-72
2021/12/24 03:15:55;;;;;;;0.00;0.00;;;;;;;;;;1738624;28;20459;-72
2021/12/24 03:16:52;;;;;;;0.00;0.00;;;;;;;;;;1739306;28;20644;-72
2021/12/24 03:17:49;;;;;;;0.00;0.00;;;;;;;;;;1738845;28;20199;-72
2021/12/24 03:18:42;;;;;;;0.00;0.00;;;;;;;;;;1737989;28;20209;-72
2021/12/24 03:19:34;;;;;;;0.00;0.00;;;;;;;;;;1738688;28;20207;-72
2021/12/24 03:20:28;;;;;;;0.00;0.00;;;;;;;;;;1740508;28;20211;-72
2021/12/24 03:21:27;;;;;;;0.00;0.00;;;;;;;;;;1736980;28;20218;-72
2021/12/24 03:22:35;;;;;;;0.00;0.00;;;;;;;;;;1738952;28;20381;-72
2021/12/24 03:23:36;;;;;;;0.00;0.00;;;;;;;;;;1737244;28;20277;-72
2021/12/24 03:24:36;;;;;;;0.00;0.00;;;;;;;;;;1738677;28;20202;-72
2021/12/24 03:25:28;;;;;;;0.00;0.00;;;;;;;;;;1738959;28;20196;-72
2021/12/24 03:26:20;;;;;;;0.00;0.00;;;;;;;;;;1738821;28;20198;-72
2021/12/24 03:27:12;;;;;;;0.00;0.00;;;;;;;;;;1739502;28;20203;-72
2021/12/24 03:28:04;;;;;;;0.00;0.00;;;;;;;;;;1738660;28;20267;-72
2021/12/24 03:28:56;;;;;;;0.00;0.00;;;;;;;;;;1739001;28;20199;-72
2021/12/24 03:29:48;;;;;;;0.00;0.00;;;;;;;;;;1738190;28;20549;-72
2021/12/24 03:30:40;;;;;;;0.00;0.00;;;;;;;;;;1738327;28;20255;-73
2021/12/24 03:31:32;;;;;;;0.00;0.00;;;;;;;;;;1739475;28;20207;-73
2021/12/24 03:32:24;;;;;;;0.00;0.00;;;;;;;;;;1738550;28;20214;-72
2021/12/24 03:33:15;;;;;;;0.00;0.00;;;;;;;;;;1738663;28;20206;-72
2021/12/24 03:34:08;;;;;;;0.00;0.00;;;;;;;;;;1737520;28;20583;-72
2021/12/24 03:34:59;;;;;;;0.00;0.00;;;;;;;;;;1739615;28;20206;-72
2021/12/24 03:35:51;;;;;;;0.00;0.00;;;;;;;;;;1737715;28;20286;-72
2021/12/24 03:36:44;;;;;;;0.00;0.00;;;;;;;;;;1739324;28;20211;-72
2021/12/24 03:37:36;;;;;;;0.00;0.00;;;;;;;;;;1738993;28;20225;-72
2021/12/24 03:38:28;;;;;;;0.00;0.00;;;;;;;;;;1738717;28;20229;-72
2021/12/24 03:39:20;;;;;;;0.00;0.00;;;;;;;;;;1738903;28;20209;-72
2021/12/24 03:40:11;;;;;;;0.00;0.00;;;;;;;;;;1739554;28;20225;-72
2021/12/24 03:41:04;;;;;;;0.00;0.00;;;;;;;;;;1738380;28;20226;-72
2021/12/24 03:41:55;;;;;;;0.00;0.00;;;;;;;;;;1737330;28;20203;-72
2021/12/24 03:42:47;;;;;;;0.00;0.00;;;;;;;;;;1739068;28;20264;-72
2021/12/24 03:43:38;;;;;;;0.00;0.00;;;;;;;;;;1737496;28;20214;-72
2021/12/24 03:44:36;;;;;;;0.00;0.00;;;;;;;;;;1738690;28;20210;-72
2021/12/24 03:45:33;;;;;;;0.00;0.00;;;;;;;;;;1737051;28;20202;-72
2021/12/24 03:46:33;;;;;;;0.00;0.00;;;;;;;;;;1738802;28;20475;-72
2021/12/24 03:47:26;;;;;;;0.00;0.00;;;;;;;;;;1739166;28;20194;-72
2021/12/24 03:48:23;;;;;;;0.00;0.00;;;;;;;;;;1738549;28;20272;-72
2021/12/24 03:49:19;;;;;;;0.00;0.00;;;;;;;;;;1738825;28;20203;-72
2021/12/24 03:50:12;;;;;;;0.10;0.10;;;;;;;;;;1739598;28;20202;-72
2021/12/24 03:51:18;;;;;;;0.00;0.00;;;;;;;;;;1738078;28;20230;-72
2021/12/24 03:52:34;;;;;;;0.00;0.00;;;;;;;;;;1737886;28;20195;-72
2021/12/24 03:55:44;;;;;;;0.00;0.00;;;;;;;;;;1735903;28;20274;-72
2021/12/24 03:56:37;;;;;;;0.00;0.00;;;;;;;;;;1737106;28;20252;-72
2021/12/24 03:57:30;;;;;;;0.00;0.00;;;;;;;;;;1738870;28;20649;-72
2021/12/24 03:58:22;;;;;;;0.00;0.00;;;;;;;;;;1738667;28;20624;-72
2021/12/24 03:59:14;;;;;;;0.00;0.00;;;;;;;;;;1738383;28;20528;-72
2021/12/24 04:00:07;;;;;;;0.00;0.00;;;;;;;;;;1740275;28;20198;-72
2021/12/24 04:00:59;;;;;;;0.00;0.00;;;;;;;;;;1738136;28;20222;-72
2021/12/24 04:01:51;;;;;;;0.00;0.00;;;;;;;;;;1739095;28;20217;-72
2021/12/24 04:02:43;;;;;;;0.00;0.00;;;;;;;;;;1738661;28;20571;-72
2021/12/24 04:03:34;;;;;;;0.00;0.00;;;;;;;;;;1739129;28;20217;-72
2021/12/24 04:04:26;;;;;;;0.00;0.00;;;;;;;;;;1739034;28;20199;-72
2021/12/24 04:05:18;;;;;;;0.00;0.00;;;;;;;;;;1739078;28;20226;-72
2021/12/24 04:06:10;;;;;;;0.00;0.00;;;;;;;;;;1737766;28;20219;-72
2021/12/24 04:07:01;;;;;;;0.00;0.00;;;;;;;;;;1739288;28;20222;-72
2021/12/24 04:07:55;;;;;;;0.00;0.00;;;;;;;;;;1738544;28;20684;-72
2021/12/24 04:08:46;;;;;;;0.00;0.00;;;;;;;;;;1738910;28;20199;-72
2021/12/24 04:09:44;;;;;;;0.00;0.00;;;;;;;;;;1738676;28;20581;-72
2021/12/24 04:10:39;;;;;;;0.00;0.00;;;;;;;;;;1737555;28;20199;-72
2021/12/24 04:11:32;;;;;;;0.00;0.00;;;;;;;;;;1738039;28;20238;-72
2021/12/24 04:12:23;;;;;;;0.00;0.00;;;;;;;;;;1739343;28;20207;-72
2021/12/24 04:13:16;;;;;;;0.00;0.00;;;;;;;;;;1739482;28;20201;-72
2021/12/24 04:14:07;;;;;;;0.00;0.00;;;;;;;;;;1738848;28;20625;-72
2021/12/24 04:14:59;;;;;;;0.00;0.00;;;;;;;;;;1739661;28;20241;-72
2021/12/24 04:15:50;;;;;;;0.00;0.00;;;;;;;;;;1738328;28;20617;-72
2021/12/24 04:16:43;;;;;;;0.00;0.00;;;;;;;;;;1740004;28;20202;-72
2021/12/24 04:17:37;;;;;;;0.00;0.00;;;;;;;;;;1738054;28;20284;-72
2021/12/24 04:18:41;;;;;;;0.00;0.00;;;;;;;;;;1736564;28;20236;-72
2021/12/24 04:24:50;;;;;;;0.00;0.00;;;;;;;;;;1738555;28;20612;-72
2021/12/24 04:24:52;;;;;;;0.00;0.00;;;;;;;;;;1736780;28;20196;-72
2021/12/24 04:25:43;;;;;;;0.00;0.00;;;;;;;;;;1739025;28;20226;-72
2021/12/24 04:26:35;;;;;;;0.00;0.00;;;;;;;;;;1739679;28;20204;-72
2021/12/24 04:27:28;;;;;;;0.00;0.00;;;;;;;;;;1739736;28;20206;-72
2021/12/24 04:28:20;;;;;;;0.00;0.00;;;;;;;;;;1739107;28;20213;-72
2021/12/24 04:29:11;;;;;;;0.00;0.00;;;;;;;;;;1737828;28;20649;-72
2021/12/24 04:30:10;;;;;;;0.00;0.00;;;;;;;;;;1738791;28;20258;-72
2021/12/24 04:31:02;;;;;;;0.00;0.00;;;;;;;;;;1736502;28;20243;-72
2021/12/24 04:32:06;;;;;;;0.00;0.00;;;;;;;;;;1738962;28;20207;-72
2021/12/24 04:33:02;;;;;;;0.00;0.00;;;;;;;;;;1739041;28;20275;-72
2021/12/24 04:33:59;;;;;;;0.00;0.00;;;;;;;;;;1741662;28;20628;-72
2021/12/24 04:34:52;;;;;;;0.00;0.00;;;;;;;;;;1739217;28;20279;-72
2021/12/24 04:35:47;;;;;;;0.00;0.00;;;;;;;;;;1738983;28;20222;-72
2021/12/24 04:36:54;;;;;;;0.00;0.00;;;;;;;;;;1740416;28;20318;-72
2021/12/24 04:38:23;;;;;;;0.00;0.00;;;;;;;;;;1738692;28;20552;-72
2021/12/24 04:39:43;;;;;;;0.00;0.00;;;;;;;;;;1739877;28;20215;-72
2021/12/24 04:51:15;;;;;;;0.00;0.00;;;;;;;;;;1736929;28;20288;-72
2021/12/24 04:52:18;;;;;;;0.00;0.00;;;;;;;;;;1740839;28;20195;-72
2021/12/24 05:01:11;;;;;;;0.00;0.00;;;;;;;;;;1738494;28;20195;-72
2021/12/24 05:02:04;;;;;;;0.00;0.00;;;;;;;;;;1728398;28;20316;-72
2021/12/24 05:03:01;;;;;;;0.00;0.00;;;;;;;;;;1734483;28;20525;-72
2021/12/24 05:03:53;;;;;;;0.00;0.00;;;;;;;;;;1740544;28;20596;-72
2021/12/24 05:04:50;;;;;;;0.00;0.00;;;;;;;;;;1738936;28;20207;-72
2021/12/24 05:05:46;;;;;;;0.00;0.00;;;;;;;;;;1738981;28;20308;-72
2021/12/24 05:06:41;;;;;;;0.00;0.00;;;;;;;;;;1740380;28;20299;-72
2021/12/24 05:08:01;;;;;;;0.00;0.00;;;;;;;;;;1739721;28;20553;-72
2021/12/24 05:08:55;;;;;;;0.00;0.00;;;;;;;;;;1739366;28;20701;-72
2021/12/24 05:09:48;;;;;;;0.00;0.00;;;;;;;;;;1739493;28;20290;-72
2021/12/24 05:10:40;;;;;;;0.00;0.00;;;;;;;;;;1738607;28;20576;-72
2021/12/24 05:11:32;;;;;;;0.00;0.00;;;;;;;;;;1739530;28;20203;-72
2021/12/24 05:12:23;;;;;;;0.00;0.00;;;;;;;;;;1740669;28;20202;-72
2021/12/24 05:13:17;;;;;;;0.00;0.00;;;;;;;;;;1738308;28;20228;-72
2021/12/24 05:14:14;;;;;;;0.00;0.00;;;;;;;;;;1739646;28;20553;-72
2021/12/24 05:15:10;;;;;;;0.00;0.00;;;;;;;;;;1740221;28;20684;-72
2021/12/24 05:16:12;;;;;;;0.00;0.00;;;;;;;;;;1738284;28;20231;-72
2021/12/24 05:17:20;;;;;;;0.00;0.00;;;;;;;;;;1740005;28;20192;-72
2021/12/24 05:18:28;;;;;;;0.00;0.00;;;;;;;;;;1736845;28;20211;-72
2021/12/24 05:21:43;;;;;;;0.00;0.00;;;;;;;;;;1740082;28;20209;-72
2021/12/24 05:22:34;;;;;;;0.00;0.00;;;;;;;;;;1739107;28;20211;-72
2021/12/24 05:23:26;;;;;;;0.00;0.00;;;;;;;;;;1739166;28;20295;-72
2021/12/24 05:24:18;;;;;;;0.00;0.00;;;;;;;;;;1732931;28;20201;-72
2021/12/24 05:25:12;;;;;;;0.00;0.00;;;;;;;;;;1739462;28;20219;-72
2021/12/24 05:26:03;;;;;;;0.00;0.00;;;;;;;;;;1738865;28;20284;-73
2021/12/24 05:26:57;;;;;;;0.00;0.00;;;;;;;;;;1738753;28;20223;-73
2021/12/24 05:27:51;;;;;;;0.00;0.00;;;;;;;;;;1739117;28;20632;-73
2021/12/24 05:28:43;;;;;;;0.00;0.00;;;;;;;;;;1738458;28;20595;-73
2021/12/24 05:29:35;;;;;;;0.00;0.00;;;;;;;;;;1739406;28;20206;-73
2021/12/24 05:30:27;;;;;;;0.00;0.00;;;;;;;;;;1739241;28;20222;-73
2021/12/24 05:31:19;;;;;;;0.00;0.00;;;;;;;;;;1734542;28;20218;-73
2021/12/24 05:32:12;;;;;;;0.00;0.00;;;;;;;;;;1740559;28;20290;-73
2021/12/24 05:33:03;;;;;;;0.00;0.00;;;;;;;;;;1739006;28;20218;-73
2021/12/24 05:33:55;;;;;;;0.00;0.00;;;;;;;;;;1739677;28;20647;-73
2021/12/24 05:34:46;;;;;;;0.00;0.00;;;;;;;;;;1739267;28;20207;-73
2021/12/24 05:35:38;;;;;;;0.00;0.00;;;;;;;;;;1739536;28;20618;-73
2021/12/24 05:36:30;;;;;;;0.00;0.00;;;;;;;;;;1739901;28;20218;-73
2021/12/24 05:37:22;;;;;;;0.00;0.00;;;;;;;;;;1739261;28;20202;-73
2021/12/24 05:38:14;;;;;;;0.00;0.00;;;;;;;;;;1739891;28;20214;-73
2021/12/24 05:39:06;;;;;;;0.00;0.00;;;;;;;;;;1739146;28;20264;-73
2021/12/24 05:39:57;;;;;;;0.00;0.00;;;;;;;;;;1736902;28;20202;-73
2021/12/24 05:40:50;;;;;;;0.00;0.00;;;;;;;;;;1738960;28;20348;-73
2021/12/24 05:41:42;;;;;;;0.00;0.00;;;;;;;;;;1739987;28;20222;-73
2021/12/24 05:42:34;;;;;;;0.00;0.00;;;;;;;;;;1739479;28;20213;-73
2021/12/24 05:43:25;;;;;;;0.00;0.00;;;;;;;;;;1739453;28;20591;-73
2021/12/24 05:44:17;;;;;;;0.00;0.00;;;;;;;;;;1737262;28;20248;-73
2021/12/24 05:45:10;;;;;;;0.00;0.00;;;;;;;;;;1737999;28;20211;-73
2021/12/24 05:46:02;;;;;;;0.00;0.00;;;;;;;;;;1738136;28;20219;-73
2021/12/24 05:46:53;;;;;;;0.00;0.00;;;;;;;;;;1739838;28;20211;-73
2021/12/24 05:47:46;;;;;;;0.00;0.00;;;;;;;;;;1739285;28;20198;-73
2021/12/24 05:48:37;;;;;;;0.00;0.00;;;;;;;;;;1739561;28;20211;-73
2021/12/24 05:49:29;;;;;;;0.00;0.00;;;;;;;;;;1739270;28;20704;-73
2021/12/24 05:50:20;;;;;;;0.00;0.00;;;;;;;;;;1740237;28;20210;-73
2021/12/24 05:51:12;;;;;;;0.00;0.00;;;;;;;;;;1732944;28;20230;-73
2021/12/24 05:52:04;;;;;;;0.00;0.00;;;;;;;;;;1740429;28;20198;-73
2021/12/24 05:52:56;;;;;;;0.00;0.00;;;;;;;;;;1735909;28;20274;-73
2021/12/24 05:53:48;;;;;;;0.00;0.00;;;;;;;;;;1739843;28;20206;-73
2021/12/24 05:54:40;;;;;;;0.00;0.00;;;;;;;;;;1739333;28;20211;-72
2021/12/24 05:55:31;;;;;;;0.00;0.00;;;;;;;;;;1736118;28;20525;-73
2021/12/24 05:56:25;;;;;;;0.00;0.00;;;;;;;;;;1738250;28;20264;-73
2021/12/24 05:57:16;;;;;;;0.00;0.00;;;;;;;;;;1738548;28;20198;-73
2021/12/24 05:58:09;;;;;;;0.00;0.00;;;;;;;;;;1738550;28;20256;-73
2021/12/24 05:59:01;;;;;;;0.00;0.00;;;;;;;;;;1739041;28;20596;-73
2021/12/24 05:59:53;;;;;;;0.00;0.00;;;;;;;;;;1740133;28;20202;-72
2021/12/24 06:00:44;;;;;;;0.00;0.00;;;;;;;;;;1738375;28;20237;-73
2021/12/24 06:01:36;;;;;;;0.00;0.00;;;;;;;;;;1740085;28;20393;-73
2021/12/24 06:02:28;;;;;;;0.00;0.00;;;;;;;;;;1740256;28;20223;-73
2021/12/24 06:03:20;;;;;;;0.00;0.00;;;;;;;;;;1739274;28;20694;-73
2021/12/24 06:04:11;;;;;;;0.00;0.00;;;;;;;;;;1739076;28;20207;-73
2021/12/24 06:05:03;;;;;;;0.00;0.00;;;;;;;;;;1739872;28;20198;-73
2021/12/24 06:05:54;;;;;;;0.00;0.00;;;;;;;;;;1738709;28;20349;-73
2021/12/24 06:06:47;;;;;;;0.00;0.00;;;;;;;;;;1739846;28;20202;-73
2021/12/24 06:07:38;;;;;;;0.00;0.00;;;;;;;;;;1739388;28;20644;-73
2021/12/24 06:08:30;;;;;;;0.00;0.00;;;;;;;;;;1737076;28;20214;-73
2021/12/24 06:09:21;;;;;;;0.00;0.00;;;;;;;;;;1738693;28;20203;-73
2021/12/24 06:10:13;;;;;;;0.00;0.00;;;;;;;;;;1739854;28;20641;-73
2021/12/24 06:11:05;;;;;;;0.00;0.00;;;;;;;;;;1738829;28;20583;-73
2021/12/24 06:11:59;;;;;;;0.00;0.00;;;;;;;;;;1738889;28;20257;-73
2021/12/24 06:12:50;;;;;;;0.00;0.00;;;;;;;;;;1739122;28;20203;-73
2021/12/24 06:13:42;;;;;;;0.00;0.00;;;;;;;;;;1739841;28;20257;-73
2021/12/24 06:14:33;;;;;;;0.00;0.00;;;;;;;;;;1738990;28;20220;-73
2021/12/24 06:15:26;;;;;;;0.00;0.00;;;;;;;;;;1739018;28;20210;-73
2021/12/24 06:16:18;;;;;;;0.00;0.00;;;;;;;;;;1734006;28;20203;-73
2021/12/24 06:17:15;;;;;;;0.00;0.00;;;;;;;;;;1739982;28;20528;-72
2021/12/24 06:18:12;;;;;;;0.00;0.00;;;;;;;;;;1738956;28;20211;-73
2021/12/24 06:19:04;;;;;;;0.00;0.00;;;;;;;;;;1739809;28;20281;-73
2021/12/24 06:19:55;;;;;;;0.00;0.00;;;;;;;;;;1737844;28;20221;-73
2021/12/24 06:20:47;;;;;;;0.00;0.00;;;;;;;;;;1738365;28;20230;-73
2021/12/24 06:21:39;;;;;;;0.00;0.00;;;;;;;;;;1739819;28;20597;-73
2021/12/24 06:22:31;;;;;;;0.00;0.00;;;;;;;;;;1739208;28;20206;-73
2021/12/24 06:23:23;;;;;;;0.00;0.00;;;;;;;;;;1739964;28;20214;-73
2021/12/24 06:24:17;;;;;;;0.00;0.00;;;;;;;;;;1739002;28;20573;-73
2021/12/24 06:25:09;;;;;;;0.00;0.00;;;;;;;;;;1739860;28;20607;-73
2021/12/24 06:26:03;;;;;;;0.00;0.00;;;;;;;;;;1738532;28;20314;-73
2021/12/24 06:26:55;;;;;;;0.00;0.00;;;;;;;;;;1739672;28;20207;-73
2021/12/24 06:27:49;;;;;;;0.00;0.00;;;;;;;;;;1739223;28;20206;-73
2021/12/24 06:28:40;;;;;;;0.00;0.00;;;;;;;;;;1739468;28;20472;-73
2021/12/24 06:29:32;;;;;;;0.00;0.00;;;;;;;;;;1739139;28;20235;-73
2021/12/24 06:30:28;;;;;;;0.00;0.00;;;;;;;;;;1739564;28;20277;-73
2021/12/24 06:31:21;;;;;;;0.00;0.00;;;;;;;;;;1733853;28;20249;-73